KCZZ

Campo Airport

Campo, California, USA
METAR KCZZ 232252Z AUTO 03014G22KT 17/M09 A3009 RMK AO1 PK WND 03026/2223 SLP170 T01671089 $
Observed Flight Rules
Jan-23 @ 22:52 UTC (30 minutes ago)
Wind
30° at 14 knots
 Gusting to 22 knots
Temperatures Readings
Current 17°C / 63°F
Dewpoint -9°C / 16°F
Humidity 16%
Altimeter 30.09" Hg
Pressure 1017 hPa
Elevation 807
METAR KCZZ 232252Z AUTO 03014G22KT 17/M09 A3009 RMK AO1 PK WND 03026/2223 SLP170 T01671089 $
Observed Flight Rules
Jan-23 @ 22:52 UTC
(30 minutes ago)
Wind
30° at 14 knots
 Gusting to 22 knots
Temperature Dewpoint
17°C / 63°F -9°C / 16°F
Humidity Altimeter Pressure
16% 30.09" Hg 1017 hPa